sensor_id;sensor_type;location;lat;lon;timestamp;temperature;humidity
62154;DHT22;48140;45.486;9.226;2022-09-03T01:18:35;23.00;70.30
62154;DHT22;48140;45.486;9.226;2022-09-03T01:26:16;23.00;70.50
62154;DHT22;48140;45.486;9.226;2022-09-03T01:31:28;23.00;70.80
62154;DHT22;48140;45.486;9.226;2022-09-03T01:36:37;22.90;71.40
62154;DHT22;48140;45.486;9.226;2022-09-03T01:39:04;22.80;72.20
62154;DHT22;48140;45.486;9.226;2022-09-03T01:47:13;22.70;73.10
62154;DHT22;48140;45.486;9.226;2022-09-03T01:49:42;22.70;73.00
62154;DHT22;48140;45.486;9.226;2022-09-03T01:52:15;22.70;73.00
62154;DHT22;48140;45.486;9.226;2022-09-03T02:02:25;22.60;73.40
62154;DHT22;48140;45.486;9.226;2022-09-03T02:05:33;22.50;74.80
62154;DHT22;48140;45.486;9.226;2022-09-03T02:07:44;22.50;74.30
62154;DHT22;48140;45.486;9.226;2022-09-03T02:10:25;22.50;74.70
62154;DHT22;48140;45.486;9.226;2022-09-03T02:12:55;22.50;74.80
62154;DHT22;48140;45.486;9.226;2022-09-03T02:15:22;22.50;75.10
62154;DHT22;48140;45.486;9.226;2022-09-03T02:17:49;22.40;75.30
62154;DHT22;48140;45.486;9.226;2022-09-03T02:20:19;22.40;75.40
62154;DHT22;48140;45.486;9.226;2022-09-03T02:22:46;22.40;75.50
62154;DHT22;48140;45.486;9.226;2022-09-03T02:25:12;22.40;75.50
62154;DHT22;48140;45.486;9.226;2022-09-03T02:27:38;22.40;75.50
62154;DHT22;48140;45.486;9.226;2022-09-03T02:30:04;22.30;75.90
62154;DHT22;48140;45.486;9.226;2022-09-03T02:32:30;22.30;76.20
62154;DHT22;48140;45.486;9.226;2022-09-03T02:34:56;22.30;76.40
62154;DHT22;48140;45.486;9.226;2022-09-03T02:37:22;22.20;76.70
62154;DHT22;48140;45.486;9.226;2022-09-03T02:39:48;22.20;76.90
62154;DHT22;48140;45.486;9.226;2022-09-03T02:42:16;22.20;76.90
62154;DHT22;48140;45.486;9.226;2022-09-03T02:44:53;22.20;76.90
62154;DHT22;48140;45.486;9.226;2022-09-03T02:47:19;22.10;76.90
62154;DHT22;48140;45.486;9.226;2022-09-03T02:49:48;22.10;76.80
62154;DHT22;48140;45.486;9.226;2022-09-03T02:52:14;22.00;76.90
62154;DHT22;48140;45.486;9.226;2022-09-03T02:54:39;22.00;77.20
62154;DHT22;48140;45.486;9.226;2022-09-03T02:57:06;21.90;76.80
62154;DHT22;48140;45.486;9.226;2022-09-03T02:59:32;21.90;77.00
62154;DHT22;48140;45.486;9.226;2022-09-03T03:02:01;21.90;76.80
62154;DHT22;48140;45.486;9.226;2022-09-03T03:04:28;21.90;76.80
62154;DHT22;48140;45.486;9.226;2022-09-03T03:06:53;21.90;75.50
62154;DHT22;48140;45.486;9.226;2022-09-03T03:09:19;21.90;75.20
62154;DHT22;48140;45.486;9.226;2022-09-03T03:11:44;22.00;74.80
62154;DHT22;48140;45.486;9.226;2022-09-03T03:14:11;22.00;74.10
62154;DHT22;48140;45.486;9.226;2022-09-03T03:16:36;22.00;73.70
62154;DHT22;48140;45.486;9.226;2022-09-03T03:19:02;22.00;73.80
62154;DHT22;48140;45.486;9.226;2022-09-03T03:21:27;22.00;73.90
62154;DHT22;48140;45.486;9.226;2022-09-03T03:23:53;22.00;73.60
62154;DHT22;48140;45.486;9.226;2022-09-03T03:26:19;22.00;73.30
62154;DHT22;48140;45.486;9.226;2022-09-03T03:28:45;22.00;73.30
62154;DHT22;48140;45.486;9.226;2022-09-03T03:31:17;22.00;72.60
62154;DHT22;48140;45.486;9.226;2022-09-03T03:33:42;22.00;72.80
62154;DHT22;48140;45.486;9.226;2022-09-03T03:36:09;21.90;72.50
62154;DHT22;48140;45.486;9.226;2022-09-03T03:38:35;21.90;72.60
62154;DHT22;48140;45.486;9.226;2022-09-03T03:41:15;21.90;72.60
62154;DHT22;48140;45.486;9.226;2022-09-03T03:43:41;21.90;72.20
62154;DHT22;48140;45.486;9.226;2022-09-03T03:46:07;21.90;72.00
62154;DHT22;48140;45.486;9.226;2022-09-03T03:48:33;21.90;71.70
62154;DHT22;48140;45.486;9.226;2022-09-03T03:50:59;22.00;71.70
62154;DHT22;48140;45.486;9.226;2022-09-03T03:53:25;22.00;71.50
62154;DHT22;48140;45.486;9.226;2022-09-03T03:55:54;22.00;71.10
62154;DHT22;48140;45.486;9.226;2022-09-03T03:58:20;22.00;70.90
62154;DHT22;48140;45.486;9.226;2022-09-03T04:00:45;22.00;70.80
62154;DHT22;48140;45.486;9.226;2022-09-03T04:03:14;22.00;70.50
62154;DHT22;48140;45.486;9.226;2022-09-03T04:05:39;22.10;70.40
62154;DHT22;48140;45.486;9.226;2022-09-03T04:08:05;22.10;70.00
62154;DHT22;48140;45.486;9.226;2022-09-03T04:10:30;22.10;69.50
62154;DHT22;48140;45.486;9.226;2022-09-03T04:12:56;22.10;69.70
62154;DHT22;48140;45.486;9.226;2022-09-03T04:15:22;22.10;69.20
62154;DHT22;48140;45.486;9.226;2022-09-03T04:17:47;22.10;69.20
62154;DHT22;48140;45.486;9.226;2022-09-03T04:20:13;22.10;68.70
62154;DHT22;48140;45.486;9.226;2022-09-03T04:22:38;22.10;68.70
62154;DHT22;48140;45.486;9.226;2022-09-03T04:25:04;22.10;68.50
62154;DHT22;48140;45.486;9.226;2022-09-03T04:27:29;22.10;69.50
62154;DHT22;48140;45.486;9.226;2022-09-03T04:29:55;22.10;68.50
62154;DHT22;48140;45.486;9.226;2022-09-03T04:32:21;22.10;68.40
62154;DHT22;48140;45.486;9.226;2022-09-03T04:35:05;22.10;68.40
62154;DHT22;48140;45.486;9.226;2022-09-03T04:37:31;22.10;68.70
62154;DHT22;48140;45.486;9.226;2022-09-03T04:39:57;22.10;68.40
62154;DHT22;48140;45.486;9.226;2022-09-03T04:42:23;22.10;68.50
62154;DHT22;48140;45.486;9.226;2022-09-03T04:44:48;22.10;68.60
62154;DHT22;48140;45.486;9.226;2022-09-03T04:47:14;22.00;68.70
62154;DHT22;48140;45.486;9.226;2022-09-03T04:49:40;22.00;68.90
62154;DHT22;48140;45.486;9.226;2022-09-03T04:52:05;22.00;68.70
62154;DHT22;48140;45.486;9.226;2022-09-03T04:54:31;22.00;69.00
62154;DHT22;48140;45.486;9.226;2022-09-03T04:56:57;21.90;69.20
62154;DHT22;48140;45.486;9.226;2022-09-03T04:59:22;21.90;69.20
62154;DHT22;48140;45.486;9.226;2022-09-03T05:01:48;21.90;69.20
62154;DHT22;48140;45.486;9.226;2022-09-03T05:04:13;21.90;69.10
62154;DHT22;48140;45.486;9.226;2022-09-03T05:06:39;21.90;69.30
62154;DHT22;48140;45.486;9.226;2022-09-03T05:09:05;21.90;69.10
62154;DHT22;48140;45.486;9.226;2022-09-03T05:11:31;21.80;69.10
62154;DHT22;48140;45.486;9.226;2022-09-03T05:13:57;21.90;69.10
62154;DHT22;48140;45.486;9.226;2022-09-03T05:16:23;21.90;68.90
62154;DHT22;48140;45.486;9.226;2022-09-03T05:18:53;21.90;69.10
62154;DHT22;48140;45.486;9.226;2022-09-03T05:21:19;21.90;68.80
62154;DHT22;48140;45.486;9.226;2022-09-03T05:23:45;21.90;69.10
62154;DHT22;48140;45.486;9.226;2022-09-03T05:26:12;21.90;68.70
62154;DHT22;48140;45.486;9.226;2022-09-03T05:28:39;22.00;68.70
62154;DHT22;48140;45.486;9.226;2022-09-03T05:31:05;22.00;68.20
62154;DHT22;48140;45.486;9.226;2022-09-03T05:33:35;22.00;67.90
62154;DHT22;48140;45.486;9.226;2022-09-03T05:36:02;22.00;67.70
62154;DHT22;48140;45.486;9.226;2022-09-03T05:38:27;22.00;67.90
62154;DHT22;48140;45.486;9.226;2022-09-03T05:40:53;22.10;67.60
62154;DHT22;48140;45.486;9.226;2022-09-03T05:43:22;22.20;67.20
62154;DHT22;48140;45.486;9.226;2022-09-03T05:45:47;22.20;66.60
62154;DHT22;48140;45.486;9.226;2022-09-03T05:48:13;22.20;66.40
62154;DHT22;48140;45.486;9.226;2022-09-03T05:50:38;22.30;66.10
62154;DHT22;48140;45.486;9.226;2022-09-03T05:53:04;22.40;65.90
62154;DHT22;48140;45.486;9.226;2022-09-03T05:58:42;22.50;65.50
62154;DHT22;48140;45.486;9.226;2022-09-03T06:01:28;22.50;65.10
62154;DHT22;48140;45.486;9.226;2022-09-03T06:03:56;22.50;64.90
62154;DHT22;48140;45.486;9.226;2022-09-03T06:06:22;22.60;64.80
62154;DHT22;48140;45.486;9.226;2022-09-03T06:08:55;22.60;65.90
62154;DHT22;48140;45.486;9.226;2022-09-03T06:11:22;22.60;64.10
62154;DHT22;48140;45.486;9.226;2022-09-03T06:13:55;22.70;64.10
62154;DHT22;48140;45.486;9.226;2022-09-03T06:16:22;22.80;63.60
62154;DHT22;48140;45.486;9.226;2022-09-03T06:18:47;23.00;62.90
62154;DHT22;48140;45.486;9.226;2022-09-03T06:21:13;23.10;62.50
62154;DHT22;48140;45.486;9.226;2022-09-03T06:23:39;23.10;61.80
62154;DHT22;48140;45.486;9.226;2022-09-03T06:26:06;23.20;61.90
62154;DHT22;48140;45.486;9.226;2022-09-03T06:28:33;23.20;61.80
62154;DHT22;48140;45.486;9.226;2022-09-03T06:30:59;23.20;61.50
62154;DHT22;48140;45.486;9.226;2022-09-03T06:33:26;23.20;61.30
62154;DHT22;48140;45.486;9.226;2022-09-03T06:35:54;23.20;61.20
62154;DHT22;48140;45.486;9.226;2022-09-03T06:38:23;23.20;60.70
62154;DHT22;48140;45.486;9.226;2022-09-03T06:40:53;23.30;61.00
62154;DHT22;48140;45.486;9.226;2022-09-03T12:04:08;30.10;37.70
62154;DHT22;48140;45.486;9.226;2022-09-03T12:06:44;29.60;38.80
62154;DHT22;48140;45.486;9.226;2022-09-03T12:11:48;29.30;40.00
62154;DHT22;48140;45.486;9.226;2022-09-03T12:14:22;29.60;39.70
62154;DHT22;48140;45.486;9.226;2022-09-03T12:17:25;30.00;38.90
62154;DHT22;48140;45.486;9.226;2022-09-03T12:22:16;29.80;38.50
62154;DHT22;48140;45.486;9.226;2022-09-03T12:24:42;29.50;38.80
62154;DHT22;48140;45.486;9.226;2022-09-03T12:27:14;30.10;37.40
62154;DHT22;48140;45.486;9.226;2022-09-03T12:29:49;30.10;37.50
62154;DHT22;48140;45.486;9.226;2022-09-03T12:32:14;30.60;36.20
62154;DHT22;48140;45.486;9.226;2022-09-03T12:34:40;31.40;34.80
62154;DHT22;48140;45.486;9.226;2022-09-03T12:37:15;31.90;33.40
62154;DHT22;48140;45.486;9.226;2022-09-03T12:39:48;31.90;33.10
62154;DHT22;48140;45.486;9.226;2022-09-03T12:42:17;31.60;33.30
62154;DHT22;48140;45.486;9.226;2022-09-03T12:44:44;31.60;33.30
62154;DHT22;48140;45.486;9.226;2022-09-03T12:49:39;31.60;33.30
62154;DHT22;48140;45.486;9.226;2022-09-03T12:52:16;31.40;33.40
62154;DHT22;48140;45.486;9.226;2022-09-03T12:54:45;31.10;33.70
62154;DHT22;48140;45.486;9.226;2022-09-03T12:57:12;30.20;35.40
62154;DHT22;48140;45.486;9.226;2022-09-03T12:59:39;30.00;36.70
62154;DHT22;48140;45.486;9.226;2022-09-03T13:02:11;29.90;36.60
62154;DHT22;48140;45.486;9.226;2022-09-03T13:04:38;29.70;37.10
62154;DHT22;48140;45.486;9.226;2022-09-03T13:07:05;29.60;37.30
62154;DHT22;48140;45.486;9.226;2022-09-03T13:09:33;29.50;37.70
62154;DHT22;48140;45.486;9.226;2022-09-03T13:12:00;29.40;38.30
62154;DHT22;48140;45.486;9.226;2022-09-03T13:14:40;29.20;38.40
62154;DHT22;48140;45.486;9.226;2022-09-03T13:17:13;29.20;39.00
62154;DHT22;48140;45.486;9.226;2022-09-03T13:30:20;30.20;37.50
62154;DHT22;48140;45.486;9.226;2022-09-03T13:40:54;30.20;37.00
62154;DHT22;48140;45.486;9.226;2022-09-03T13:43:02;30.20;37.20
62154;DHT22;48140;45.486;9.226;2022-09-03T13:48:09;30.90;36.20
62154;DHT22;48140;45.486;9.226;2022-09-03T13:50:59;31.30;35.70
62154;DHT22;48140;45.486;9.226;2022-09-03T13:53:35;31.90;34.60
62154;DHT22;48140;45.486;9.226;2022-09-03T13:59:05;32.30;32.80
62154;DHT22;48140;45.486;9.226;2022-09-03T14:01:54;32.20;33.70
62154;DHT22;48140;45.486;9.226;2022-09-03T14:04:34;31.90;34.30
62154;DHT22;48140;45.486;9.226;2022-09-03T14:07:07;32.10;33.70
62154;DHT22;48140;45.486;9.226;2022-09-03T14:09:40;32.30;33.10
62154;DHT22;48140;45.486;9.226;2022-09-03T14:12:12;32.40;33.20
62154;DHT22;48140;45.486;9.226;2022-09-03T14:14:52;32.50;32.90
62154;DHT22;48140;45.486;9.226;2022-09-03T14:25:01;31.60;34.40
62154;DHT22;48140;45.486;9.226;2022-09-03T14:27:29;31.40;35.00
62154;DHT22;48140;45.486;9.226;2022-09-03T14:29:59;30.80;36.20
62154;DHT22;48140;45.486;9.226;2022-09-03T14:38:17;30.30;37.60
62154;DHT22;48140;45.486;9.226;2022-09-03T14:40:49;30.30;37.90
62154;DHT22;48140;45.486;9.226;2022-09-03T14:43:23;30.30;38.10
62154;DHT22;48140;45.486;9.226;2022-09-03T15:03:54;29.50;40.40
62154;DHT22;48140;45.486;9.226;2022-09-03T15:06:27;29.90;40.10
62154;DHT22;48140;45.486;9.226;2022-09-03T15:11:42;30.50;38.20
62154;DHT22;48140;45.486;9.226;2022-09-03T15:14:34;30.10;38.70
62154;DHT22;48140;45.486;9.226;2022-09-03T15:24:50;31.40;36.10
62154;DHT22;48140;45.486;9.226;2022-09-03T15:30:08;31.40;35.70
62154;DHT22;48140;45.486;9.226;2022-09-03T15:35:29;31.30;36.50
62154;DHT22;48140;45.486;9.226;2022-09-03T15:37:59;31.40;36.30
62154;DHT22;48140;45.486;9.226;2022-09-03T15:40:33;31.30;36.20
62154;DHT22;48140;45.486;9.226;2022-09-03T15:43:18;31.10;36.50
62154;DHT22;48140;45.486;9.226;2022-09-03T15:50:38;31.20;36.80
62154;DHT22;48140;45.486;9.226;2022-09-03T15:56:03;31.50;36.20
62154;DHT22;48140;45.486;9.226;2022-09-03T15:58:33;31.50;36.10
62154;DHT22;48140;45.486;9.226;2022-09-03T16:01:10;31.60;36.20
62154;DHT22;48140;45.486;9.226;2022-09-03T16:03:43;31.60;36.00
62154;DHT22;48140;45.486;9.226;2022-09-03T16:06:24;31.50;36.20
62154;DHT22;48140;45.486;9.226;2022-09-03T16:08:56;31.40;36.40
62154;DHT22;48140;45.486;9.226;2022-09-03T16:11:33;31.30;36.70
62154;DHT22;48140;45.486;9.226;2022-09-03T16:14:14;31.30;37.00
62154;DHT22;48140;45.486;9.226;2022-09-03T16:16:50;31.30;36.70
62154;DHT22;48140;45.486;9.226;2022-09-03T16:19:20;31.10;36.90
62154;DHT22;48140;45.486;9.226;2022-09-03T16:21:56;30.80;37.40
62154;DHT22;48140;45.486;9.226;2022-09-03T16:27:08;29.90;39.40
62154;DHT22;48140;45.486;9.226;2022-09-03T16:29:35;29.50;41.30
62154;DHT22;48140;45.486;9.226;2022-09-03T16:32:12;29.10;44.00
62154;DHT22;48140;45.486;9.226;2022-09-03T16:39:53;28.20;51.10
62154;DHT22;48140;45.486;9.226;2022-09-03T17:03:49;26.80;58.60
62154;DHT22;48140;45.486;9.226;2022-09-03T17:06:25;26.80;59.20
62154;DHT22;48140;45.486;9.226;2022-09-03T17:17:03;26.50;60.20
62154;DHT22;48140;45.486;9.226;2022-09-03T17:22:32;26.50;60.30
62154;DHT22;48140;45.486;9.226;2022-09-03T17:25:03;26.60;60.30
62154;DHT22;48140;45.486;9.226;2022-09-03T17:30:06;26.40;60.70
62154;DHT22;48140;45.486;9.226;2022-09-03T17:40:27;26.30;62.40
62154;DHT22;48140;45.486;9.226;2022-09-03T17:45:36;26.20;63.80
62154;DHT22;48140;45.486;9.226;2022-09-03T17:48:12;26.10;64.00
62154;DHT22;48140;45.486;9.226;2022-09-03T17:53:33;25.80;65.10
62154;DHT22;48140;45.486;9.226;2022-09-03T17:56:01;25.70;65.50
62154;DHT22;48140;45.486;9.226;2022-09-03T17:58:30;25.70;65.80
62154;DHT22;48140;45.486;9.226;2022-09-03T18:03:54;25.70;66.20
62154;DHT22;48140;45.486;9.226;2022-09-03T18:06:29;25.70;66.00
62154;DHT22;48140;45.486;9.226;2022-09-03T18:08:59;25.60;66.40
62154;DHT22;48140;45.486;9.226;2022-09-03T18:11:32;25.60;66.40
62154;DHT22;48140;45.486;9.226;2022-09-03T18:14:15;25.50;66.50
62154;DHT22;48140;45.486;9.226;2022-09-03T18:19:48;25.50;66.60
62154;DHT22;48140;45.486;9.226;2022-09-03T18:22:35;25.60;66.60
62154;DHT22;48140;45.486;9.226;2022-09-03T18:25:24;25.50;66.80
62154;DHT22;48140;45.486;9.226;2022-09-03T18:28:09;25.40;67.40
62154;DHT22;48140;45.486;9.226;2022-09-03T18:30:56;25.40;67.60
62154;DHT22;48140;45.486;9.226;2022-09-03T18:33:40;25.30;68.30
62154;DHT22;48140;45.486;9.226;2022-09-03T18:36:25;25.30;68.60
62154;DHT22;48140;45.486;9.226;2022-09-03T18:39:14;25.30;68.80
62154;DHT22;48140;45.486;9.226;2022-09-03T18:45:33;25.30;69.30
62154;DHT22;48140;45.486;9.226;2022-09-03T18:47:59;25.20;69.20
62154;DHT22;48140;45.486;9.226;2022-09-03T18:56:26;25.20;69.70
62154;DHT22;48140;45.486;9.226;2022-09-03T19:02:01;25.10;70.10
62154;DHT22;48140;45.486;9.226;2022-09-03T19:08:01;25.00;70.70
62154;DHT22;48140;45.486;9.226;2022-09-03T19:13:34;24.90;70.50
62154;DHT22;48140;45.486;9.226;2022-09-03T19:21:54;24.90;70.50
62154;DHT22;48140;45.486;9.226;2022-09-03T19:24:42;24.80;70.60
62154;DHT22;48140;45.486;9.226;2022-09-03T19:30:12;24.70;71.00
62154;DHT22;48140;45.486;9.226;2022-09-03T19:33:12;24.60;71.50
62154;DHT22;48140;45.486;9.226;2022-09-03T19:39:11;24.50;71.20
62154;DHT22;48140;45.486;9.226;2022-09-03T19:50:35;24.20;73.10
62154;DHT22;48140;45.486;9.226;2022-09-03T19:53:20;24.20;74.40
62154;DHT22;48140;45.486;9.226;2022-09-03T19:56:09;24.10;75.30
62154;DHT22;48140;45.486;9.226;2022-09-03T19:58:58;24.10;76.10
62154;DHT22;48140;45.486;9.226;2022-09-03T20:01:43;24.00;77.10
62154;DHT22;48140;45.486;9.226;2022-09-03T20:04:32;23.90;77.80
62154;DHT22;48140;45.486;9.226;2022-09-03T20:07:17;23.90;78.30
62154;DHT22;48140;45.486;9.226;2022-09-03T20:10:03;23.90;78.90
62154;DHT22;48140;45.486;9.226;2022-09-03T20:12:49;23.90;79.40
62154;DHT22;48140;45.486;9.226;2022-09-03T20:15:17;23.80;79.10
62154;DHT22;48140;45.486;9.226;2022-09-03T20:17:59;23.80;79.30
62154;DHT22;48140;45.486;9.226;2022-09-03T20:20:29;23.80;79.30
62154;DHT22;48140;45.486;9.226;2022-09-03T20:23:05;23.80;80.80
62154;DHT22;48140;45.486;9.226;2022-09-03T20:31:00;23.70;80.50
62154;DHT22;48140;45.486;9.226;2022-09-03T20:33:29;23.70;80.60
62154;DHT22;48140;45.486;9.226;2022-09-03T20:38:47;23.70;80.60
62154;DHT22;48140;45.486;9.226;2022-09-03T20:41:35;23.70;80.90
62154;DHT22;48140;45.486;9.226;2022-09-03T20:44:14;23.70;81.30
62154;DHT22;48140;45.486;9.226;2022-09-03T20:52:02;23.60;81.50
62154;DHT22;48140;45.486;9.226;2022-09-03T20:59:49;23.60;82.00
62154;DHT22;48140;45.486;9.226;2022-09-03T21:10:16;23.60;82.20
62154;DHT22;48140;45.486;9.226;2022-09-03T21:12:46;23.60;82.10
62154;DHT22;48140;45.486;9.226;2022-09-03T21:15:21;23.60;82.00
62154;DHT22;48140;45.486;9.226;2022-09-03T21:25:16;23.60;81.50
62154;DHT22;48140;45.486;9.226;2022-09-03T21:27:54;23.60;81.80
62154;DHT22;48140;45.486;9.226;2022-09-03T21:30:20;23.60;81.70
62154;DHT22;48140;45.486;9.226;2022-09-03T21:41:26;23.50;79.10
62154;DHT22;48140;45.486;9.226;2022-09-03T21:43:34;23.50;79.10
62154;DHT22;48140;45.486;9.226;2022-09-03T21:46:05;23.50;79.40
62154;DHT22;48140;45.486;9.226;2022-09-03T21:48:36;23.50;78.10
62154;DHT22;48140;45.486;9.226;2022-09-03T21:51:26;23.50;77.60
62154;DHT22;48140;45.486;9.226;2022-09-03T21:53:52;23.50;77.40
62154;DHT22;48140;45.486;9.226;2022-09-03T22:01:46;23.60;76.40
62154;DHT22;48140;45.486;9.226;2022-09-03T22:04:14;23.50;76.90
62154;DHT22;48140;45.486;9.226;2022-09-03T22:09:12;23.60;74.30
62154;DHT22;48140;45.486;9.226;2022-09-03T22:11:46;23.60;72.70
62154;DHT22;48140;45.486;9.226;2022-09-03T22:14:15;23.60;72.50
62154;DHT22;48140;45.486;9.226;2022-09-03T22:17:24;23.60;72.60
62154;DHT22;48140;45.486;9.226;2022-09-03T22:19:32;23.60;72.40
62154;DHT22;48140;45.486;9.226;2022-09-03T22:22:01;23.60;72.60
62154;DHT22;48140;45.486;9.226;2022-09-03T22:37:08;23.40;74.20
62154;DHT22;48140;45.486;9.226;2022-09-03T22:39:37;23.50;74.30
62154;DHT22;48140;45.486;9.226;2022-09-03T22:47:24;23.40;74.80
62154;DHT22;48140;45.486;9.226;2022-09-03T22:49:53;23.40;74.40
62154;DHT22;48140;45.486;9.226;2022-09-03T22:57:32;23.40;74.00
62154;DHT22;48140;45.486;9.226;2022-09-03T23:00:02;23.40;74.10
62154;DHT22;48140;45.486;9.226;2022-09-03T23:02:29;23.40;74.50
62154;DHT22;48140;45.486;9.226;2022-09-03T23:10:18;23.30;74.90
62154;DHT22;48140;45.486;9.226;2022-09-03T23:12:46;23.30;75.10
62154;DHT22;48140;45.486;9.226;2022-09-03T23:15:15;23.30;75.30
62154;DHT22;48140;45.486;9.226;2022-09-03T23:17:44;23.30;75.50
62154;DHT22;48140;45.486;9.226;2022-09-03T23:20:15;23.20;75.70
62154;DHT22;48140;45.486;9.226;2022-09-03T23:22:48;23.20;76.60
62154;DHT22;48140;45.486;9.226;2022-09-03T23:25:34;23.20;78.20
62154;DHT22;48140;45.486;9.226;2022-09-03T23:28:05;23.20;77.80
62154;DHT22;48140;45.486;9.226;2022-09-03T23:30:35;23.20;78.20
62154;DHT22;48140;45.486;9.226;2022-09-03T23:33:00;23.20;78.40
62154;DHT22;48140;45.486;9.226;2022-09-03T23:35:28;23.20;78.30
62154;DHT22;48140;45.486;9.226;2022-09-03T23:40:46;23.20;78.60
62154;DHT22;48140;45.486;9.226;2022-09-03T23:43:31;23.20;78.90
62154;DHT22;48140;45.486;9.226;2022-09-03T23:49:06;23.10;79.00
